Ana Sayfa
METAR-TAF:

METAR-TAF

Havaalanları :

Labuan, Malezya

Enlem: 05-18N, Boylam: 115-15E, yükseklik: 30 m

Güncel hava durumu gözlemi

Rapor saat 09:00 UTC de 42 dakika önce yapıldı.
Rüzgar kuzeydoğudan 9 kt, batı ve doğu/kuzeydoğu arasında değişken
Sıcaklık 29°C
Nem 84%
Basınç 1007 hPa
Görüş mesafesi 10 km veya daha fazla
1600 ft yükseklikte az bulutlu
30000 ft yükseklikte parçalı çok bulutlu

METAR: WBKL 250900Z 05009KT 280V070 9999 FEW016 BKN300 29/26 Q1007

Saat: 17:42 (09:42 UTC)

Tahmin

Rapor saat 05:00 UTC de 4 saat ve 42 dakika önce yapıldı.
Ayın 25'si saat 06 UTC'den ayın 26'si saat 06 UTC'ye kadar geçerli Tahmin
Rüzgar kuzeydoğudan 8 kt
Görüş mesafesi 10 km veya daha fazla
1300 ft yükseklikte az bulutlu

TAF: WBKL 250500Z 2506/2606 04008KT 9999 FEW013

4.000'den fazla havaalanı için hava durumu gözlemleri ve tahminleri (METAR ve TAF raporları).

Kullanılabilir istasyonlar harita üzerinde sarı ve kırmızı noktalarla gösterilir.

İstasyonun adını görmek için fareyi noktanın üzerinde gezdirin.

Sonrasında hava gözlem ve tahminlerini görmek için tıklayın.

Haritayı değiştirmek için: yaklaştırmak için siyah artı işaretli yeşil düğmeye ve uzaklaştırmak için de eksi işaretli düğmeye hızla tıklayın; bitişik haritalar için yeşil okları kullanın.


METAR-TAF: